Time;durP1;ratioP1;P1;durP2;ratioP2;P2;SDS_P1;SDS_P2;PMS_P1;PMS_P2;Temp;Humidity;BMP_temperature;BMP_pressure;BME280_temperature;BME280_humidity;BME280_pressure;Samples;Min_cycle;Max_cycle;Signal;HPM_P1;HPM_P2
2023/10/19 00:00:26;;;;;;;22.00;14.40;;;;;;;-146.25;100.00;52396.59;2104271;28;36292;-70
2023/10/19 00:02:54;;;;;;;20.35;15.98;;;;;;;-146.25;100.00;52412.81;2105634;28;20075;-72
2023/10/19 00:03:59;;;;;;;;;;;;;;;-146.25;100.00;52404.69;2105622;28;21392;-73
2023/10/19 00:05:01;;;;;;;20.17;14.43;;;;;;;-146.25;100.00;52449.31;2103588;28;39232;-71
2023/10/19 00:06:05;;;;;;;21.52;16.60;;;;;;;-146.25;100.00;52406.72;2104411;28;20121;-71
2023/10/19 00:07:08;;;;;;;21.77;16.73;;;;;;;-146.25;100.00;52374.28;2104094;28;38152;-71
2023/10/19 00:08:20;;;;;;;22.23;16.52;;;;;;;-146.25;100.00;52398.59;2105602;28;20854;-71
2023/10/19 00:09:22;;;;;;;22.25;16.08;;;;;;;-146.25;100.00;52380.38;2095051;28;40870;-71
2023/10/19 00:10:26;;;;;;;25.15;17.05;;;;;;;-146.25;100.00;52390.50;2095723;28;37404;-70
2023/10/19 00:11:27;;;;;;;25.05;17.20;;;;;;;-146.25;100.00;52394.56;2087137;28;34772;-72
2023/10/19 00:12:29;;;;;;;23.60;17.25;;;;;;;-146.25;100.00;52396.59;2096024;28;36569;-72
2023/10/19 00:13:31;;;;;;;23.50;17.83;;;;;;;-146.25;100.00;52396.59;2112342;28;32303;-70
2023/10/19 00:14:32;;;;;;;23.10;17.20;;;;;;;-146.25;100.00;52420.91;2104069;28;37629;-70
2023/10/19 00:15:57;;;;;;;23.52;16.60;;;;;;;-146.25;100.00;52398.59;2104258;28;35949;-70
2023/10/19 00:17:00;;;;;;;30.05;18.48;;;;;;;-146.25;100.00;52390.50;2104702;28;20045;-70
2023/10/19 00:19:20;;;;;;;24.25;17.13;;;;;;;-146.25;100.00;52392.53;2104590;28;20166;-71
2023/10/19 00:20:51;;;;;;;22.77;17.30;;;;;;;-146.25;100.00;52400.63;2103988;28;35220;-70
2023/10/19 00:21:55;;;;;;;27.42;19.70;;;;;;;-146.25;100.00;52392.53;2105012;28;20040;-71
2023/10/19 00:22:58;;;;;;;27.05;17.98;;;;;;;-146.25;100.00;52412.81;2103449;28;36518;-71
2023/10/19 00:24:04;;;;;;;29.05;20.05;;;;;;;-146.25;100.00;52388.47;2103947;28;35220;-71
2023/10/19 00:25:08;;;;;;;29.83;20.65;;;;;;;-146.25;100.00;52366.16;2095392;28;30736;-72
2023/10/19 00:26:20;;;;;;;30.52;21.35;;;;;;;-146.25;100.00;52416.84;2096623;28;33072;-71
2023/10/19 00:27:33;;;;;;;26.25;19.67;;;;;;;-146.25;100.00;52396.59;2095448;28;20057;-71
2023/10/19 00:28:38;;;;;;;30.67;21.83;;;;;;;-146.25;100.00;52380.38;2097699;28;29637;-72
2023/10/19 00:29:41;;;;;;;26.98;20.70;;;;;;;-146.25;100.00;52372.25;2103904;28;26696;-71
2023/10/19 00:30:45;;;;;;;26.88;20.25;;;;;;;-146.25;100.00;52449.31;2103551;28;29122;-71
2023/10/19 00:31:48;;;;;;;28.15;21.13;;;;;;;-146.25;100.00;52392.53;2096234;28;21123;-72
2023/10/19 00:32:50;;;;;;;31.75;22.00;;;;;;;-146.25;100.00;52392.53;2089060;28;25617;-71
2023/10/19 00:33:54;;;;;;;29.13;21.30;;;;;;;-146.25;100.00;52388.47;2097172;28;32154;-72
2023/10/19 00:34:56;;;;;;;29.98;21.45;;;;;;;-146.25;100.00;52392.53;2103740;28;34905;-72
2023/10/19 00:36:07;;;;;;;31.88;21.50;;;;;;;-146.25;100.00;52388.47;2104140;28;23373;-71
2023/10/19 00:37:10;;;;;;;31.70;22.67;;;;;;;-146.25;100.00;52408.75;2096120;28;20038;-71
2023/10/19 00:39:50;;;;;;;32.95;21.55;;;;;;;-146.25;100.00;52441.19;2103559;28;23912;-72
2023/10/19 00:40:58;;;;;;;36.17;22.67;;;;;;;-146.25;100.00;52376.31;2097526;28;34943;-72
2023/10/19 00:42:02;;;;;;;36.17;22.27;;;;;;;-146.25;100.00;52437.13;2096308;28;33870;-72
2023/10/19 00:43:10;;;;;;;32.10;20.88;;;;;;;-146.25;100.00;52414.84;2103748;28;26172;-73
2023/10/19 00:44:25;;;;;;;36.08;23.83;;;;;;;-146.25;100.00;52414.84;2104441;28;20934;-71
2023/10/19 00:45:31;;;;;;;30.20;22.30;;;;;;;-146.25;100.00;52406.72;2104422;28;20037;-71
2023/10/19 00:46:42;;;;;;;34.85;22.67;;;;;;;-146.25;100.00;52358.06;2103612;28;20107;-71
2023/10/19 00:47:46;;;;;;;30.55;21.70;;;;;;;-146.25;100.00;52408.75;2103711;28;35028;-73
2023/10/19 00:48:56;;;;;;;33.78;22.83;;;;;;;-146.25;100.00;52414.84;2103450;28;27551;-74
2023/10/19 00:50:02;;;;;;;39.30;24.60;;;;;;;-146.25;100.00;52400.63;2103196;28;33242;-71
2023/10/19 00:51:09;;;;;;;34.10;23.55;;;;;;;-146.25;100.00;52422.94;2095766;28;33603;-73
2023/10/19 00:52:11;;;;;;;38.17;26.08;;;;;;;-146.25;100.00;52406.72;2096818;28;20041;-71
2023/10/19 00:53:14;;;;;;;36.90;24.40;;;;;;;-146.25;100.00;52388.47;2103810;28;20044;-71
2023/10/19 00:55:36;;;;;;;34.63;24.05;;;;;;;-146.25;100.00;52394.56;2095719;28;20045;-71
2023/10/19 00:56:41;;;;;;;39.67;25.25;;;;;;;-146.25;100.00;52388.47;2097766;28;31068;-72
2023/10/19 00:57:48;;;;;;;37.78;25.08;;;;;;;-146.25;100.00;52400.63;2103796;28;29519;-71
2023/10/19 00:58:55;;;;;;;36.92;24.15;;;;;;;-146.25;100.00;52398.59;2104408;28;21036;-71
2023/10/19 01:00:11;;;;;;;40.65;26.08;;;;;;;-146.25;100.00;52396.59;2103967;28;29667;-72
2023/10/19 01:01:14;;;;;;;40.20;24.75;;;;;;;-146.25;100.00;52404.69;2104016;28;20834;-72
2023/10/19 01:02:19;;;;;;;39.50;25.80;;;;;;;-146.25;100.00;52388.47;2104397;28;31911;-71
2023/10/19 01:03:22;;;;;;;41.10;26.48;;;;;;;-146.25;100.00;52408.75;2095099;28;24376;-72
2023/10/19 01:04:25;;;;;;;40.63;26.23;;;;;;;-146.25;100.00;52376.31;2095315;28;33809;-72
2023/10/19 01:05:35;;;;;;;42.50;25.58;;;;;;;-146.25;100.00;52394.56;2112088;28;20976;-72
2023/10/19 01:06:43;;;;;;;41.80;28.10;;;;;;;-146.25;100.00;52410.78;2105072;28;20040;-72
2023/10/19 01:07:46;;;;;;;41.42;25.33;;;;;;;-146.25;100.00;52392.53;2104437;28;33611;-72
2023/10/19 01:08:51;;;;;;;48.55;26.98;;;;;;;-146.25;100.00;52431.06;2103847;28;20069;-72
2023/10/19 01:09:59;;;;;;;44.85;27.40;;;;;;;-146.25;100.00;52400.63;2103120;28;37426;-72
2023/10/19 01:11:03;;;;;;;50.45;28.88;;;;;;;-146.25;100.00;52390.50;2104243;28;21099;-72
2023/10/19 01:12:25;;;;;;;48.80;28.00;;;;;;;-146.25;100.00;52386.44;2104007;28;23646;-72
2023/10/19 01:13:26;;;;;;;45.58;28.42;;;;;;;-146.25;100.00;52416.84;2112236;28;20044;-72
2023/10/19 01:14:29;;;;;;;54.55;29.17;;;;;;;-146.25;100.00;52412.81;2111952;28;25279;-72
2023/10/19 01:15:36;;;;;;;43.45;26.50;;;;;;;-146.25;100.00;52427.00;2103838;28;34053;-72
2023/10/19 01:16:45;;;;;;;48.15;28.40;;;;;;;-146.25;100.00;52364.13;2104450;28;20903;-72
2023/10/19 01:17:56;;;;;;;52.60;30.08;;;;;;;-146.25;100.00;52400.63;2103709;28;27029;-72
2023/10/19 01:18:58;;;;;;;50.95;29.27;;;;;;;-146.25;100.00;52420.91;2103883;28;21015;-71
2023/10/19 01:20:07;;;;;;;49.65;27.98;;;;;;;-146.25;100.00;52427.00;2106614;28;20071;-73
2023/10/19 01:21:11;;;;;;;49.72;29.48;;;;;;;-146.25;100.00;52427.00;2106097;28;30522;-72
2023/10/19 01:22:16;;;;;;;50.38;29.70;;;;;;;-146.25;100.00;52400.63;2096366;28;27399;-72
2023/10/19 01:23:21;;;;;;;51.85;26.65;;;;;;;-146.25;100.00;52412.81;2097699;28;27355;-73
2023/10/19 01:24:40;;;;;;;47.03;28.95;;;;;;;-146.25;100.00;52433.06;2104738;28;35579;-72
2023/10/19 01:27:03;;;;;;;47.75;29.60;;;;;;;-146.25;100.00;52394.56;2105504;28;28893;-72
2023/10/19 01:28:10;;;;;;;50.85;29.88;;;;;;;-146.25;100.00;52404.69;2105278;28;25222;-71
2023/10/19 01:29:17;;;;;;;49.83;29.58;;;;;;;-146.25;100.00;52416.84;2106279;28;20025;-71
2023/10/19 01:30:19;;;;;;;51.72;30.38;;;;;;;-146.25;100.00;52408.75;2105629;28;31365;-72
2023/10/19 01:32:30;;;;;;;49.28;29.42;;;;;;;-146.25;100.00;52380.38;2105102;28;32957;-73
2023/10/19 01:33:34;;;;;;;51.80;30.15;;;;;;;-146.25;100.00;52439.16;2098476;28;20034;-73
2023/10/19 01:34:36;;;;;;;52.25;30.92;;;;;;;-146.25;100.00;52416.84;2104992;28;31076;-73
2023/10/19 01:37:04;;;;;;;52.13;29.45;;;;;;;-146.25;100.00;52396.59;2106007;28;20028;-72
2023/10/19 01:38:07;;;;;;;55.20;32.28;;;;;;;-146.25;100.00;52418.88;2105014;28;32752;-71
2023/10/19 01:39:11;;;;;;;59.97;33.78;;;;;;;-146.25;100.00;52396.59;2105378;28;23190;-73
2023/10/19 01:40:19;;;;;;;55.97;31.95;;;;;;;-146.25;100.00;52416.84;2105290;28;31726;-72
2023/10/19 01:41:24;;;;;;;57.05;31.48;;;;;;;-146.25;100.00;52461.47;2111617;28;31544;-72
2023/10/19 01:42:26;;;;;;;57.47;32.72;;;;;;;-146.25;100.00;52392.53;2097371;28;20083;-71
2023/10/19 01:43:31;;;;;;;57.45;32.47;;;;;;;-146.25;100.00;52396.59;2104904;28;36189;-72
2023/10/19 01:44:35;;;;;;;60.53;32.05;;;;;;;-146.25;100.00;52402.66;2104833;28;20040;-72
2023/10/19 01:45:37;;;;;;;59.10;33.83;;;;;;;-146.25;100.00;52433.06;2104812;28;23663;-72
2023/10/19 01:46:48;;;;;;;57.67;32.78;;;;;;;-146.25;100.00;52443.22;2104783;28;36053;-71
2023/10/19 01:47:51;;;;;;;59.58;33.45;;;;;;;-146.25;100.00;52414.84;2105361;28;28106;-72
2023/10/19 01:48:57;;;;;;;57.63;34.10;;;;;;;-146.25;100.00;52429.03;2097559;28;38923;-74
2023/10/19 01:49:58;;;;;;;59.22;33.35;;;;;;;-146.25;100.00;52435.09;2104554;28;34583;-71
2023/10/19 01:51:05;;;;;;;65.05;33.90;;;;;;;-146.25;100.00;52416.84;2114027;28;20158;-72
2023/10/19 01:52:07;;;;;;;59.95;32.35;;;;;;;-146.25;100.00;52424.97;2106168;28;20125;-72
2023/10/19 01:53:15;;;;;;;60.40;33.03;;;;;;;-146.25;100.00;52400.63;2113173;28;32851;-74
2023/10/19 01:54:18;;;;;;;51.90;29.25;;;;;;;-146.25;100.00;52402.66;2113138;28;28572;-71
2023/10/19 01:55:20;;;;;;;55.90;32.45;;;;;;;-146.25;100.00;52412.81;2104681;28;30951;-71
2023/10/19 01:56:24;;;;;;;61.47;34.45;;;;;;;-146.25;100.00;52398.59;2104992;28;27658;-73
2023/10/19 01:57:26;;;;;;;63.00;34.58;;;;;;;-146.25;100.00;52416.84;2105048;28;20084;-71
2023/10/19 01:58:27;;;;;;;65.75;34.35;;;;;;;-146.25;100.00;52388.47;2105212;28;20053;-71
2023/10/19 01:59:30;;;;;;;61.80;34.08;;;;;;;-146.25;100.00;52408.75;2113294;28;20176;-71
2023/10/19 02:00:37;;;;;;;56.75;32.00;;;;;;;-146.25;100.00;52384.41;2112594;28;20086;-71
2023/10/19 02:01:44;;;;;;;65.45;33.85;;;;;;;-146.25;100.00;52402.66;2104657;28;23124;-71
2023/10/19 02:02:47;;;;;;;56.10;30.92;;;;;;;-146.25;100.00;52435.09;2105200;28;28028;-72
2023/10/19 02:03:54;;;;;;;58.50;30.95;;;;;;;-146.25;100.00;52400.63;2104716;28;30378;-72
2023/10/19 02:04:59;;;;;;;64.25;34.25;;;;;;;-146.25;100.00;52386.44;2096720;28;20029;-70
2023/10/19 02:07:19;;;;;;;58.30;32.33;;;;;;;-146.25;100.00;52435.09;2098992;28;27528;-71
2023/10/19 02:08:25;;;;;;;53.03;30.73;;;;;;;-146.25;100.00;52410.78;2105270;28;20155;-72
2023/10/19 02:09:29;;;;;;;59.97;32.53;;;;;;;-146.25;100.00;52402.66;2105558;28;20033;-72
2023/10/19 02:10:40;;;;;;;58.80;33.50;;;;;;;-146.25;100.00;52386.44;2105779;28;20029;-72
2023/10/19 02:11:46;;;;;;;60.83;31.55;;;;;;;-146.25;100.00;52402.66;2104873;28;20160;-72
2023/10/19 02:12:48;;;;;;;59.40;31.75;;;;;;;-146.25;100.00;52424.97;2105494;28;20048;-72
2023/10/19 02:13:59;;;;;;;58.42;32.47;;;;;;;-146.25;100.00;52431.06;2104725;28;27319;-72
2023/10/19 02:15:01;;;;;;;57.13;31.35;;;;;;;-146.25;100.00;52374.28;2104686;28;29761;-71
2023/10/19 02:16:03;;;;;;;59.45;32.63;;;;;;;-146.25;100.00;52418.88;2097356;28;28099;-71
2023/10/19 02:17:05;;;;;;;58.55;31.92;;;;;;;-146.25;100.00;52445.25;2102345;28;20040;-71
2023/10/19 02:18:08;;;;;;;64.82;34.92;;;;;;;-146.25;100.00;52433.06;2105066;28;21307;-71
2023/10/19 02:19:10;;;;;;;62.67;34.40;;;;;;;-146.25;100.00;52396.59;2105294;28;28130;-72
2023/10/19 02:20:24;;;;;;;62.53;33.28;;;;;;;-146.25;100.00;52435.09;2104640;28;30821;-72
2023/10/19 02:21:32;;;;;;;65.40;33.90;;;;;;;-146.25;100.00;52412.81;2096820;28;20045;-71
2023/10/19 02:22:35;;;;;;;64.22;34.75;;;;;;;-146.25;100.00;52408.75;2095971;28;28757;-71
2023/10/19 02:23:39;;;;;;;62.65;33.05;;;;;;;-146.25;100.00;52400.63;2097076;28;23001;-71
2023/10/19 02:24:41;;;;;;;60.88;34.42;;;;;;;-146.25;100.00;52382.38;2087780;28;21783;-71
2023/10/19 02:25:44;;;;;;;60.25;33.30;;;;;;;-146.25;100.00;52418.88;2088600;28;20045;-71
2023/10/19 02:26:54;;;;;;;63.78;34.13;;;;;;;-146.25;100.00;52422.94;2087971;28;20037;-71
2023/10/19 02:27:58;;;;;;;62.97;34.58;;;;;;;-146.25;100.00;52410.78;2082233;28;28937;-71
2023/10/19 02:29:01;;;;;;;63.85;34.70;;;;;;;-146.25;100.00;52416.84;2097849;28;20692;-71
2023/10/19 02:30:05;;;;;;;64.40;34.10;;;;;;;-146.25;100.00;52427.00;2096604;28;31534;-71
2023/10/19 02:31:18;;;;;;;62.47;32.92;;;;;;;-146.25;100.00;52429.03;2095238;28;31336;-71
2023/10/19 02:32:20;;;;;;;65.75;33.60;;;;;;;-146.25;100.00;52351.97;2097373;28;20067;-71
2023/10/19 02:33:22;;;;;;;59.63;34.58;;;;;;;-146.25;100.00;52406.72;2096918;28;28942;-71
2023/10/19 02:34:24;;;;;;;66.80;35.03;;;;;;;-146.25;100.00;52416.84;2095845;28;32553;-71
2023/10/19 02:35:28;;;;;;;65.28;34.05;;;;;;;-146.25;100.00;52406.72;2096684;28;20183;-70
2023/10/19 02:36:31;;;;;;;68.30;35.55;;;;;;;-146.25;100.00;52372.25;2087704;28;32303;-71
2023/10/19 02:37:33;;;;;;;54.90;28.83;;;;;;;-146.25;100.00;52429.03;2088844;28;20038;-72
2023/10/19 02:38:35;;;;;;;72.25;36.25;;;;;;;-146.25;100.00;52449.31;2096488;28;32880;-72
2023/10/19 02:39:37;;;;;;;65.43;35.20;;;;;;;-146.25;100.00;52360.09;2096843;28;29682;-71
2023/10/19 02:40:42;;;;;;;70.25;36.90;;;;;;;-146.25;100.00;52420.91;2096948;28;24339;-71
2023/10/19 02:41:50;;;;;;;69.13;35.25;;;;;;;-146.25;100.00;52376.31;2096068;28;25399;-70
2023/10/19 02:42:53;;;;;;;67.13;34.80;;;;;;;-146.25;100.00;52400.63;2089433;28;20054;-72
2023/10/19 02:44:09;;;;;;;62.47;34.15;;;;;;;-146.25;100.00;52360.09;2088720;28;33027;-71
2023/10/19 02:45:11;;;;;;;70.68;34.83;;;;;;;-146.25;100.00;52402.66;2096102;28;30943;-71
2023/10/19 02:46:13;;;;;;;61.90;34.35;;;;;;;-146.25;100.00;52420.91;2096756;28;27447;-71
2023/10/19 02:47:15;;;;;;;69.25;35.60;;;;;;;-146.25;100.00;52410.78;2098499;28;32495;-71
2023/10/19 02:48:17;;;;;;;62.65;34.30;;;;;;;-146.25;100.00;52386.44;2105328;28;23800;-71
2023/10/19 02:49:22;;;;;;;60.25;33.85;;;;;;;-146.25;100.00;52386.44;2104745;28;20032;-72
2023/10/19 02:50:26;;;;;;;67.65;34.53;;;;;;;-146.25;100.00;52388.47;2087923;28;28993;-72
2023/10/19 02:51:28;;;;;;;66.97;34.30;;;;;;;-146.25;100.00;52422.94;2096811;28;23728;-72
2023/10/19 02:52:30;;;;;;;64.97;32.92;;;;;;;-146.25;100.00;52437.13;2105352;28;30112;-71
2023/10/19 02:53:32;;;;;;;65.95;34.70;;;;;;;-146.25;100.00;52402.66;2105093;28;30338;-72
2023/10/19 02:54:37;;;;;;;56.40;30.77;;;;;;;-146.25;100.00;52398.59;2104839;28;20048;-72
2023/10/19 02:55:40;;;;;;;61.95;34.78;;;;;;;-146.25;100.00;52420.91;2104248;28;24358;-72
2023/10/19 02:56:42;;;;;;;66.65;35.03;;;;;;;-146.25;100.00;52424.97;2113407;28;20910;-71
2023/10/19 02:57:47;;;;;;;61.35;34.47;;;;;;;-146.25;100.00;52398.59;2112726;28;23876;-72
2023/10/19 02:58:50;;;;;;;62.33;34.25;;;;;;;-146.25;100.00;52420.91;2105150;28;20151;-72
2023/10/19 02:59:52;;;;;;;68.30;34.60;;;;;;;-146.25;100.00;52433.06;2104729;28;20058;-71
2023/10/19 03:00:55;;;;;;;65.20;34.83;;;;;;;-146.25;100.00;52424.97;2096517;28;20177;-72
2023/10/19 03:02:07;;;;;;;65.43;34.13;;;;;;;-146.25;100.00;52420.91;2096637;28;20037;-71
2023/10/19 03:03:09;;;;;;;60.17;33.72;;;;;;;-146.25;100.00;52396.59;2090121;28;20203;-71
2023/10/19 03:04:15;;;;;;;71.80;36.20;;;;;;;-146.25;100.00;52451.31;2098225;28;20065;-72
2023/10/19 03:05:20;;;;;;;69.43;35.13;;;;;;;-146.25;100.00;52414.84;2104645;28;29370;-72
2023/10/19 03:06:25;;;;;;;67.40;36.00;;;;;;;-146.25;100.00;52396.59;2097241;28;29675;-72
2023/10/19 03:07:27;;;;;;;65.13;35.65;;;;;;;-146.25;100.00;52422.94;2104984;28;29156;-72
2023/10/19 03:08:29;;;;;;;69.15;35.28;;;;;;;-146.25;100.00;52402.66;2104585;28;20095;-72
2023/10/19 03:09:36;;;;;;;64.30;35.78;;;;;;;-146.25;100.00;52412.81;2096184;28;27316;-71
2023/10/19 03:10:43;;;;;;;62.22;34.08;;;;;;;-146.25;100.00;52416.84;2104855;28;20964;-72
2023/10/19 03:11:45;;;;;;;60.67;33.30;;;;;;;-146.25;100.00;52435.09;2105247;28;28774;-72
2023/10/19 03:12:47;;;;;;;66.93;34.42;;;;;;;-146.25;100.00;52382.38;2105420;28;20045;-71
2023/10/19 03:13:50;;;;;;;67.68;34.88;;;;;;;-146.25;100.00;52414.84;2105399;28;20155;-71
2023/10/19 03:14:51;;;;;;;64.88;35.90;;;;;;;-146.25;100.00;52424.97;2104937;28;27579;-71
2023/10/19 03:15:53;;;;;;;68.45;35.17;;;;;;;-146.25;100.00;52445.25;2104856;28;20058;-71
2023/10/19 03:16:56;;;;;;;65.63;34.03;;;;;;;-146.25;100.00;52410.78;2096183;28;30620;-71
2023/10/19 03:18:01;;;;;;;70.32;37.17;;;;;;;-146.25;100.00;52431.06;2095996;28;20044;-71
2023/10/19 03:19:07;;;;;;;67.45;35.30;;;;;;;-146.25;100.00;52429.03;2096858;28;20893;-71
2023/10/19 03:20:11;;;;;;;67.25;35.15;;;;;;;-146.25;100.00;52392.53;2105407;28;20165;-72
2023/10/19 03:21:13;;;;;;;67.78;34.38;;;;;;;-146.25;100.00;52443.22;2104417;28;27610;-72
2023/10/19 03:22:16;;;;;;;66.97;33.75;;;;;;;-146.25;100.00;52412.81;2104739;28;20052;-72
2023/10/19 03:23:20;;;;;;;71.30;34.33;;;;;;;-146.25;100.00;52412.81;2105116;28;20168;-72
2023/10/19 03:24:23;;;;;;;65.75;36.08;;;;;;;-146.25;100.00;52431.06;2112775;28;21469;-71
2023/10/19 03:26:48;;;;;;;63.88;34.13;;;;;;;-146.25;100.00;52424.97;2110778;28;28770;-72
2023/10/19 03:27:50;;;;;;;70.07;34.92;;;;;;;-146.25;100.00;52392.53;2105628;28;21424;-72
2023/10/19 03:29:14;;;;;;;62.22;33.90;;;;;;;-146.25;100.00;52372.25;2105225;28;20095;-72
2023/10/19 03:30:19;;;;;;;66.28;35.38;;;;;;;-146.25;100.00;52455.38;2096552;28;21032;-72
2023/10/19 03:31:25;;;;;;;67.22;35.08;;;;;;;-146.25;100.00;52439.16;2099913;28;20076;-72
2023/10/19 03:32:28;;;;;;;56.20;30.40;;;;;;;-146.25;100.00;52443.22;2104696;28;20039;-72
2023/10/19 03:33:30;;;;;;;63.58;33.83;;;;;;;-146.25;100.00;52412.81;2104387;28;30373;-71
2023/10/19 03:34:35;;;;;;;67.68;35.80;;;;;;;-146.25;100.00;52400.63;2104330;28;31898;-71
2023/10/19 03:35:42;;;;;;;63.35;33.67;;;;;;;-146.25;100.00;52396.59;2104106;28;27557;-72
2023/10/19 03:36:45;;;;;;;77.28;36.30;;;;;;;-146.25;100.00;52420.91;2104549;28;20044;-71
2023/10/19 03:37:48;;;;;;;62.95;32.40;;;;;;;-146.25;100.00;52463.50;2096734;28;22382;-72
2023/10/19 03:38:52;;;;;;;73.57;36.05;;;;;;;-146.25;100.00;52437.13;2096880;28;20049;-71
2023/10/19 03:39:58;;;;;;;63.72;33.58;;;;;;;-146.25;100.00;52396.59;2104020;28;20044;-71
2023/10/19 03:41:06;;;;;;;64.18;34.80;;;;;;;-146.25;100.00;52427.00;2095901;28;28776;-72
2023/10/19 03:42:08;;;;;;;69.50;35.08;;;;;;;-146.25;100.00;52404.69;2104224;28;28038;-71
2023/10/19 03:43:17;;;;;;;74.28;35.70;;;;;;;-146.25;100.00;52424.97;2112703;28;20927;-71
2023/10/19 03:44:24;;;;;;;54.17;29.35;;;;;;;-146.25;100.00;52396.59;2111744;28;29503;-72
2023/10/19 03:45:27;;;;;;;56.40;31.50;;;;;;;-146.25;100.00;52410.78;2104371;28;20072;-71
2023/10/19 03:46:31;;;;;;;66.50;34.47;;;;;;;-146.25;100.00;52441.19;2095974;28;20033;-71
2023/10/19 03:47:36;;;;;;;60.00;30.95;;;;;;;-146.25;100.00;52418.88;2104322;28;20155;-71
2023/10/19 03:48:38;;;;;;;70.75;35.47;;;;;;;-146.25;100.00;52449.31;2104450;28;20058;-71
2023/10/19 03:49:43;;;;;;;66.97;35.10;;;;;;;-146.25;100.00;52451.31;2105060;28;20224;-71
2023/10/19 03:50:51;;;;;;;64.43;34.15;;;;;;;-146.25;100.00;52396.59;2104229;28;27743;-71
2023/10/19 03:52:02;;;;;;;74.85;35.50;;;;;;;-146.25;100.00;52400.63;2105479;28;20090;-71
2023/10/19 03:53:06;;;;;;;68.28;34.78;;;;;;;-146.25;100.00;52445.25;2110873;28;20150;-71
2023/10/19 03:54:21;;;;;;;69.32;35.40;;;;;;;-146.25;100.00;52398.59;2104519;28;25222;-71
2023/10/19 03:55:24;;;;;;;63.53;32.17;;;;;;;-146.25;100.00;52441.19;2104409;28;20958;-71
2023/10/19 03:56:26;;;;;;;66.45;33.33;;;;;;;-146.25;100.00;52457.41;2106004;28;28270;-71
2023/10/19 03:57:29;;;;;;;72.00;34.50;;;;;;;-146.25;100.00;52429.03;2095586;28;31874;-70
2023/10/19 03:58:31;;;;;;;73.60;36.33;;;;;;;-146.25;100.00;52420.91;2096121;28;29189;-71
2023/10/19 03:59:37;;;;;;;79.28;36.40;;;;;;;-146.25;100.00;52388.47;2087683;28;21062;-72
2023/10/19 04:00:39;;;;;;;72.35;35.72;;;;;;;-146.25;100.00;52410.78;2096960;28;30928;-71
2023/10/19 04:01:43;;;;;;;74.13;36.45;;;;;;;-146.25;100.00;52437.13;2105195;28;34033;-71
2023/10/19 04:02:46;;;;;;;65.97;34.40;;;;;;;-146.25;100.00;52414.84;2103758;28;35884;-71
2023/10/19 04:03:52;;;;;;;63.88;34.03;;;;;;;-146.25;100.00;52447.28;2105236;28;20032;-72
2023/10/19 04:04:55;;;;;;;65.68;35.13;;;;;;;-146.25;100.00;52435.09;2104079;28;36222;-72
2023/10/19 04:06:00;;;;;;;65.50;34.08;;;;;;;-146.25;100.00;52477.69;2103817;28;36558;-71
2023/10/19 04:07:10;;;;;;;63.20;33.28;;;;;;;-146.25;100.00;52408.75;2096874;28;20037;-71
2023/10/19 04:08:20;;;;;;;72.97;35.55;;;;;;;-146.25;100.00;52445.25;2104094;28;38004;-71
2023/10/19 04:09:23;;;;;;;74.85;35.97;;;;;;;-146.25;100.00;52437.13;2104737;28;29389;-71
2023/10/19 04:11:51;;;;;;;69.15;34.38;;;;;;;-146.25;100.00;52414.84;2104352;28;37097;-71
2023/10/19 04:12:55;;;;;;;68.97;33.42;;;;;;;-146.25;100.00;52408.75;2104494;28;34107;-72
2023/10/19 04:13:59;;;;;;;62.58;33.53;;;;;;;-146.25;100.00;52400.63;2104377;28;36014;-72
2023/10/19 04:15:16;;;;;;;61.65;33.35;;;;;;;-146.25;100.00;52412.81;2104639;28;32992;-71
2023/10/19 04:16:20;;;;;;;69.97;33.53;;;;;;;-146.25;100.00;52461.47;2104599;28;35634;-71
2023/10/19 04:17:23;;;;;;;66.88;33.95;;;;;;;-146.25;100.00;52412.81;2103431;28;39040;-71
2023/10/19 04:18:25;;;;;;;58.30;31.02;;;;;;;-146.25;100.00;52374.28;2096010;28;20796;-70
2023/10/19 04:19:28;;;;;;;60.28;31.35;;;;;;;-146.25;100.00;52396.59;2095795;28;35359;-73
2023/10/19 04:21:46;;;;;;;60.25;32.00;;;;;;;-146.25;100.00;52410.78;2103837;28;32993;-72
2023/10/19 04:22:50;;;;;;;59.63;32.50;;;;;;;-146.25;100.00;52439.16;2103455;28;36702;-72
2023/10/19 04:23:52;;;;;;;61.03;32.45;;;;;;;-146.25;100.00;52439.16;2095644;28;34407;-72
2023/10/19 04:24:59;;;;;;;67.60;33.53;;;;;;;-146.25;100.00;52410.78;2103354;28;35288;-72
2023/10/19 04:26:24;;;;;;;61.72;32.65;;;;;;;-146.25;100.00;52414.84;2095494;28;36133;-72
2023/10/19 04:27:23;;;;;;;63.28;33.00;;;;;;;-146.25;100.00;52437.13;2093288;28;33143;-72
2023/10/19 04:28:30;;;;;;;58.40;32.17;;;;;;;-146.25;100.00;52408.75;2104012;28;31297;-73
2023/10/19 04:29:37;;;;;;;59.25;31.77;;;;;;;-146.25;100.00;52424.97;2105166;28;20041;-72
2023/10/19 04:30:42;;;;;;;41.17;21.98;;;;;;;-146.25;100.00;52414.84;2105488;28;20045;-72
2023/10/19 04:31:54;;;;;;;60.78;31.15;;;;;;;-146.25;100.00;52451.31;2103538;28;35042;-72
2023/10/19 04:33:01;;;;;;;57.33;30.15;;;;;;;-146.25;100.00;52424.97;2103969;28;34254;-72
2023/10/19 04:34:09;;;;;;;61.22;30.80;;;;;;;-146.25;100.00;52386.44;2095045;28;38536;-72
2023/10/19 04:35:23;;;;;;;56.75;30.00;;;;;;;-146.25;100.00;52408.75;2097791;28;33118;-72
2023/10/19 04:36:25;;;;;;;59.05;31.90;;;;;;;-146.25;100.00;52455.38;2109774;28;34348;-71
2023/10/19 04:37:27;;;;;;;57.15;31.08;;;;;;;-146.25;100.00;52451.31;2104316;28;35186;-71
2023/10/19 04:38:34;;;;;;;58.15;30.52;;;;;;;-146.25;100.00;52386.44;2104029;28;36042;-71
2023/10/19 04:39:36;;;;;;;58.22;30.33;;;;;;;-146.25;100.00;52431.06;2103981;28;36244;-71
2023/10/19 04:40:38;;;;;;;55.03;29.13;;;;;;;-146.25;100.00;52416.84;2103603;28;35062;-72
2023/10/19 04:41:41;;;;;;;57.63;31.02;;;;;;;-146.25;100.00;52396.59;2103498;28;32628;-72
2023/10/19 04:42:43;;;;;;;54.63;28.77;;;;;;;-146.25;100.00;52398.59;2103430;28;40443;-72
2023/10/19 04:43:49;;;;;;;56.50;31.00;;;;;;;-146.25;100.00;52429.03;2103421;28;34162;-71
2023/10/19 04:44:55;;;;;;;48.35;24.55;;;;;;;-146.25;100.00;52433.06;2104059;28;20083;-71
2023/10/19 04:45:58;;;;;;;57.75;30.50;;;;;;;-146.25;100.00;52422.94;2103746;28;35444;-71
2023/10/19 04:47:00;;;;;;;60.08;31.75;;;;;;;-146.25;100.00;52416.84;2104066;28;29294;-71
2023/10/19 04:48:04;;;;;;;58.42;30.85;;;;;;;-146.25;100.00;52368.19;2104213;28;35205;-72
2023/10/19 04:49:06;;;;;;;64.65;32.22;;;;;;;-146.25;100.00;52390.50;2104062;28;38300;-74
2023/10/19 04:50:11;;;;;;;53.97;30.58;;;;;;;-146.25;100.00;52437.13;2095402;28;28570;-72
2023/10/19 04:51:13;;;;;;;52.28;29.08;;;;;;;-146.25;100.00;52412.81;2103605;28;34761;-72
2023/10/19 04:52:14;;;;;;;58.67;30.80;;;;;;;-146.25;100.00;52439.16;2103894;28;36538;-72
2023/10/19 04:53:16;;;;;;;60.47;30.92;;;;;;;-146.25;100.00;52386.44;2104617;28;32734;-71
2023/10/19 04:54:18;;;;;;;61.33;31.50;;;;;;;-146.25;100.00;52418.88;2103754;28;31765;-72
2023/10/19 04:55:20;;;;;;;58.33;30.65;;;;;;;-146.25;100.00;52441.19;2104554;28;36386;-72
2023/10/19 04:56:22;;;;;;;58.13;30.90;;;;;;;-146.25;100.00;52453.34;2105839;28;20094;-71
2023/10/19 04:57:24;;;;;;;54.60;28.67;;;;;;;-146.25;100.00;52420.91;2096984;28;35143;-72
2023/10/19 04:58:29;;;;;;;60.15;31.17;;;;;;;-146.25;100.00;52404.69;2105435;28;35780;-72
2023/10/19 04:59:34;;;;;;;58.65;30.60;;;;;;;-146.25;100.00;52445.25;2106761;28;20033;-71
2023/10/19 05:00:36;;;;;;;54.08;28.50;;;;;;;-146.25;100.00;52435.09;2104851;28;35934;-72
2023/10/19 05:01:40;;;;;;;50.70;25.85;;;;;;;-146.25;100.00;52449.31;2105197;28;34180;-71
2023/10/19 05:02:42;;;;;;;60.35;30.52;;;;;;;-146.25;100.00;52453.34;2106093;28;20033;-71
2023/10/19 05:03:45;;;;;;;57.25;30.25;;;;;;;-146.25;100.00;52424.97;2105489;28;36446;-72